createdAt,value
2024-05-09T00:00:44.072Z,4.55
2024-05-09T00:03:12.117Z,4.20
2024-05-09T00:05:44.333Z,5.43
2024-05-09T00:08:12.465Z,5.07
2024-05-09T00:10:41.050Z,4.47
2024-05-09T00:13:10.336Z,5.72
2024-05-09T00:15:38.173Z,4.03
2024-05-09T00:18:07.360Z,5.38
2024-05-09T00:20:39.082Z,4.70
2024-05-09T00:23:13.886Z,4.88
2024-05-09T00:25:44.801Z,4.45
2024-05-09T00:28:12.968Z,3.83
2024-05-09T00:30:40.599Z,5.68
2024-05-09T00:33:09.771Z,5.07
2024-05-09T00:35:38.630Z,4.90
2024-05-09T00:38:06.184Z,8.35
2024-05-09T00:40:42.383Z,9.35
2024-05-09T00:43:12.382Z,4.68
2024-05-09T00:45:40.694Z,5.22
2024-05-09T00:48:09.573Z,5.07
2024-05-09T00:50:41.335Z,4.07
2024-05-09T00:53:11.992Z,4.90
2024-05-09T00:55:40.246Z,4.03
2024-05-09T00:58:09.797Z,4.95
2024-05-09T01:00:40.024Z,4.47
2024-05-09T01:03:11.625Z,4.60
2024-05-09T01:05:40.850Z,5.97
2024-05-09T01:08:09.008Z,4.60
2024-05-09T01:10:42.787Z,4.33
2024-05-09T01:13:12.232Z,5.23
2024-05-09T01:15:39.560Z,4.30
2024-05-09T01:18:13.822Z,4.00
2024-05-09T01:20:44.051Z,4.07
2024-05-09T01:23:15.125Z,9.63
2024-05-09T01:25:44.981Z,6.07
2024-05-09T01:28:12.519Z,4.67
2024-05-09T01:30:39.618Z,4.37
2024-05-09T01:33:08.956Z,4.73
2024-05-09T01:35:39.276Z,6.27
2024-05-09T01:38:07.504Z,4.90
2024-05-09T01:40:38.649Z,6.20
2024-05-09T01:43:09.189Z,4.53
2024-05-09T01:45:37.322Z,4.63
2024-05-09T01:48:05.165Z,5.13
2024-05-09T01:50:38.673Z,4.40
2024-05-09T01:53:14.075Z,4.70
2024-05-09T01:55:42.217Z,6.13
2024-05-09T01:58:09.891Z,4.43
2024-05-09T02:00:41.291Z,5.47
2024-05-09T02:03:14.327Z,4.50
2024-05-09T02:05:44.809Z,6.23
2024-05-09T02:08:17.467Z,4.20
2024-05-09T02:10:47.285Z,4.18
2024-05-09T02:13:15.911Z,5.77
2024-05-09T02:15:43.423Z,4.70
2024-05-09T02:18:11.085Z,4.15
2024-05-09T02:20:41.178Z,4.75
2024-05-09T02:23:09.637Z,4.57
2024-05-09T02:25:37.078Z,5.95
2024-05-09T02:28:04.324Z,6.32
2024-05-09T02:30:39.128Z,5.22
2024-05-09T02:33:11.005Z,3.88
2024-05-09T02:35:40.250Z,6.47
2024-05-09T02:38:09.543Z,4.78
2024-05-09T02:40:38.912Z,4.03
2024-05-09T02:43:09.052Z,3.97
2024-05-09T02:45:37.502Z,4.63
2024-05-09T02:48:05.235Z,4.55
2024-05-09T02:50:37.996Z,3.80
2024-05-09T02:53:08.762Z,4.40
2024-05-09T02:55:36.808Z,4.93
2024-05-09T02:58:03.961Z,4.57
2024-05-09T03:00:38.560Z,4.13
2024-05-09T03:03:10.359Z,4.68
2024-05-09T03:05:40.154Z,4.18
2024-05-09T03:08:07.845Z,5.80
2024-05-09T03:10:37.242Z,5.32
2024-05-09T03:13:11.900Z,5.53
2024-05-09T03:15:39.670Z,4.20
2024-05-09T03:18:07.195Z,5.15
2024-05-09T03:20:36.226Z,3.40
2024-05-09T03:23:08.912Z,4.30
2024-05-09T03:25:37.107Z,5.05
2024-05-09T03:28:04.414Z,4.03
2024-05-09T03:30:39.848Z,6.40
2024-05-09T03:33:17.701Z,4.05
2024-05-09T03:35:46.935Z,3.95
2024-05-09T03:38:14.508Z,3.60
2024-05-09T03:40:46.491Z,3.88
2024-05-09T03:43:14.351Z,4.45
2024-05-09T03:45:43.344Z,3.80
2024-05-09T03:48:10.743Z,3.42
2024-05-09T03:50:38.385Z,3.40
2024-05-09T03:53:06.250Z,5.03
2024-05-09T03:55:33.655Z,3.60
2024-05-09T03:58:00.830Z,4.18
2024-05-09T04:00:35.606Z,4.28
2024-05-09T04:03:08.920Z,3.47
2024-05-09T04:05:40.507Z,2.60
2024-05-09T04:08:09.058Z,3.40
2024-05-09T04:10:36.264Z,3.25
2024-05-09T04:13:04.192Z,3.33
2024-05-09T04:15:32.295Z,7.45
2024-05-09T04:18:00.020Z,3.83
2024-05-09T04:20:36.443Z,3.13
2024-05-09T04:23:08.375Z,4.25
2024-05-09T04:25:37.270Z,3.20
2024-05-09T04:28:04.976Z,2.45
2024-05-09T04:30:38.027Z,3.00
2024-05-09T04:33:10.494Z,5.50
2024-05-09T04:35:39.904Z,2.92
2024-05-09T04:38:08.205Z,2.85
2024-05-09T04:40:37.115Z,3.20
2024-05-09T04:43:05.929Z,2.78
2024-05-09T04:45:33.491Z,3.35
2024-05-09T04:48:01.331Z,2.70
2024-05-09T04:50:36.573Z,2.97
2024-05-09T04:53:10.555Z,2.13
2024-05-09T04:55:39.899Z,3.20
2024-05-09T04:58:08.968Z,2.50
2024-05-09T05:00:38.846Z,4.47
2024-05-09T05:03:10.520Z,2.10
2024-05-09T05:05:41.046Z,2.15
2024-05-09T05:08:14.922Z,2.20
2024-05-09T05:10:43.049Z,3.28
2024-05-09T05:13:21.884Z,1.95
2024-05-09T05:15:57.345Z,2.10
2024-05-09T05:18:27.099Z,2.20
2024-05-09T05:20:56.329Z,2.40
2024-05-09T05:23:24.466Z,2.15
2024-05-09T05:25:54.944Z,2.22
2024-05-09T05:28:22.512Z,2.42
2024-05-09T05:30:49.905Z,3.10
2024-05-09T05:33:20.449Z,2.65
2024-05-09T05:35:48.043Z,4.43
2024-05-09T05:38:15.414Z,4.53
2024-05-09T05:40:42.602Z,2.10
2024-05-09T05:43:16.233Z,3.67
2024-05-09T05:45:44.096Z,2.42
2024-05-09T05:48:12.777Z,3.38
2024-05-09T05:50:40.127Z,4.20
2024-05-09T05:53:08.278Z,4.10
2024-05-09T05:55:37.112Z,2.83
2024-05-09T05:58:04.542Z,5.10
2024-05-09T06:03:02.553Z,2.85
2024-05-09T06:05:29.715Z,1.67
2024-05-09T06:07:56.819Z,2.72
2024-05-09T06:10:29.654Z,3.78
2024-05-09T06:13:02.122Z,2.30
2024-05-09T06:15:29.184Z,2.95
2024-05-09T06:17:56.568Z,1.60
2024-05-09T06:20:31.862Z,4.50
2024-05-09T06:23:03.605Z,2.58
2024-05-09T06:25:30.781Z,3.03
2024-05-09T06:27:57.784Z,2.30
2024-05-09T06:30:30.520Z,2.20
2024-05-09T06:33:06.281Z,2.38
2024-05-09T06:35:34.228Z,2.40
2024-05-09T06:38:01.855Z,4.47
2024-05-09T06:40:37.057Z,2.47
2024-05-09T06:43:17.613Z,4.18
2024-05-09T06:45:48.417Z,1.80
2024-05-09T06:48:19.451Z,1.67
2024-05-09T06:50:47.240Z,1.35
2024-05-09T06:53:15.391Z,4.45
2024-05-09T06:55:42.863Z,1.60
2024-05-09T06:58:10.061Z,2.63
2024-05-09T07:00:40.347Z,2.33
2024-05-09T07:03:11.439Z,2.50
2024-05-09T07:05:40.012Z,2.47
2024-05-09T07:08:08.321Z,3.35
2024-05-09T07:10:36.845Z,1.40
2024-05-09T07:13:11.124Z,2.30
2024-05-09T07:15:38.796Z,4.40
2024-05-09T07:18:10.118Z,2.15
2024-05-09T07:20:37.486Z,3.35
2024-05-09T07:23:05.110Z,1.58
2024-05-09T07:25:32.383Z,1.65
2024-05-09T07:27:59.657Z,1.45
2024-05-09T07:30:33.088Z,1.40
2024-05-09T07:33:02.823Z,2.70
2024-05-09T07:35:31.257Z,2.08
2024-05-09T07:37:58.851Z,3.78
2024-05-09T07:40:33.167Z,2.80
2024-05-09T07:43:04.587Z,1.10
2024-05-09T07:45:48.140Z,4.82
2024-05-09T07:53:39.473Z,2.60
2024-05-09T07:58:39.383Z,1.83
2024-05-09T08:01:06.745Z,1.80
2024-05-09T08:03:34.523Z,2.58
2024-05-09T08:06:01.962Z,3.00
2024-05-09T08:08:29.403Z,2.63
2024-05-09T08:10:56.722Z,2.88
2024-05-09T08:13:23.844Z,2.03
2024-05-09T08:15:51.945Z,2.25
2024-05-09T08:18:20.050Z,2.67
2024-05-09T08:20:48.940Z,1.55
2024-05-09T08:23:16.253Z,1.17
2024-05-09T08:25:43.254Z,1.50
2024-05-09T08:28:13.316Z,4.85
2024-05-09T08:30:40.606Z,2.60
2024-05-09T08:33:08.235Z,4.00
2024-05-09T08:35:36.079Z,3.22
2024-05-09T08:38:04.780Z,4.32
2024-05-09T08:40:35.816Z,1.60
2024-05-09T08:43:11.549Z,2.09
2024-05-09T08:45:44.417Z,3.95
2024-05-09T08:48:15.729Z,2.88
2024-05-09T08:50:45.148Z,1.90
2024-05-09T08:53:14.783Z,1.92
2024-05-09T08:55:43.762Z,2.38
2024-05-09T08:58:19.712Z,2.65
2024-05-09T09:00:48.214Z,2.63
2024-05-09T09:03:19.950Z,2.00
2024-05-09T09:06:09.312Z,2.20
2024-05-09T09:08:39.761Z,1.58
2024-05-09T09:11:07.267Z,3.58
2024-05-09T09:13:34.422Z,2.55
2024-05-09T09:16:03.266Z,3.33
2024-05-09T09:18:31.217Z,2.00
2024-05-09T09:20:59.017Z,3.20
2024-05-09T09:23:30.456Z,1.90
2024-05-09T09:26:01.014Z,3.17
2024-05-09T09:28:28.566Z,2.47
2024-05-09T09:31:03.263Z,2.00
2024-05-09T09:33:31.911Z,1.75
2024-05-09T09:35:59.397Z,1.65
2024-05-09T09:38:30.302Z,1.98
2024-05-09T09:40:58.710Z,4.63
2024-05-09T09:43:26.848Z,2.45
2024-05-09T09:45:59.938Z,2.33
2024-05-09T09:48:27.748Z,1.88
2024-05-09T09:50:56.622Z,2.30
2024-05-09T09:53:24.094Z,1.83
2024-05-09T09:55:52.480Z,3.22
2024-05-09T09:58:19.813Z,2.58
2024-05-09T10:00:47.460Z,3.17
2024-05-09T10:03:14.783Z,3.58
2024-05-09T10:05:45.356Z,5.28
2024-05-09T10:08:16.130Z,5.00
2024-05-09T10:10:47.685Z,2.40
2024-05-09T10:13:15.694Z,4.60
2024-05-09T10:16:10.070Z,6.22
2024-05-09T10:18:38.470Z,2.53
2024-05-09T10:21:21.639Z,2.30
2024-05-09T10:24:02.081Z,2.28
2024-05-09T10:26:55.336Z,10.20
2024-05-09T10:29:25.887Z,2.95
2024-05-09T10:31:53.093Z,4.93
2024-05-09T10:34:23.118Z,3.95
2024-05-09T10:36:54.979Z,5.85
2024-05-09T10:39:22.853Z,2.70
2024-05-09T10:41:49.990Z,3.25
2024-05-09T10:44:18.725Z,6.40
2024-05-09T10:46:46.491Z,2.85
2024-05-09T10:49:17.135Z,2.75
2024-05-09T10:51:45.509Z,2.20
2024-05-09T10:54:12.701Z,5.30
2024-05-09T10:56:39.933Z,3.90
2024-05-09T10:59:06.997Z,5.40
2024-05-09T11:01:34.426Z,4.20
2024-05-09T11:04:04.184Z,3.97
2024-05-09T11:06:31.446Z,5.22
2024-05-09T11:08:58.587Z,4.68
2024-05-09T11:11:26.758Z,4.45
2024-05-09T11:13:53.831Z,2.45
2024-05-09T11:16:21.631Z,2.67
2024-05-09T11:18:56.817Z,2.47
2024-05-09T11:21:25.062Z,5.13
2024-05-09T11:23:52.467Z,2.80
2024-05-09T11:26:21.703Z,5.95
2024-05-09T11:28:50.882Z,2.35
2024-05-09T11:31:18.688Z,3.97
2024-05-09T11:33:47.011Z,4.38
2024-05-09T11:36:14.733Z,2.58
2024-05-09T11:38:42.244Z,3.78
2024-05-09T11:41:09.332Z,2.60
2024-05-09T11:43:36.414Z,3.42
2024-05-09T11:46:04.191Z,2.40
2024-05-09T11:48:32.281Z,7.25
2024-05-09T11:50:59.666Z,3.83
2024-05-09T11:53:26.646Z,6.00
2024-05-09T11:55:53.780Z,3.72
2024-05-09T11:58:23.007Z,4.30
2024-05-09T12:00:50.329Z,2.60
2024-05-09T12:03:17.590Z,7.78
2024-05-09T12:05:44.916Z,2.63
2024-05-09T12:08:12.598Z,2.85
2024-05-09T12:10:39.894Z,5.55
2024-05-09T12:13:07.766Z,5.63
2024-05-09T12:15:39.215Z,4.00
2024-05-09T12:18:08.094Z,2.47
2024-05-09T12:20:38.996Z,2.50
2024-05-09T12:23:09.611Z,3.38
2024-05-09T12:25:39.065Z,4.90
2024-05-09T12:28:07.340Z,2.70
2024-05-09T12:30:38.791Z,2.80
2024-05-09T12:33:09.202Z,10.38
2024-05-09T12:35:36.689Z,6.65
2024-05-09T12:38:04.424Z,4.82
2024-05-09T12:40:36.423Z,4.97
2024-05-09T12:43:08.180Z,2.83
2024-05-09T12:45:36.399Z,4.65
2024-05-09T12:48:07.107Z,7.45
2024-05-09T12:50:34.982Z,4.15
2024-05-09T12:53:03.800Z,2.63
2024-05-09T12:55:41.059Z,3.85
2024-05-09T12:58:16.740Z,3.58
2024-05-09T13:00:45.234Z,4.55
2024-05-09T13:03:12.782Z,5.63
2024-05-09T13:05:45.349Z,5.78
2024-05-09T13:08:13.988Z,3.42
2024-05-09T13:10:41.503Z,2.58
2024-05-09T13:13:12.526Z,2.75
2024-05-09T13:15:40.139Z,2.15
2024-05-09T13:18:07.750Z,2.42
2024-05-09T13:20:36.743Z,4.20
2024-05-09T13:23:07.006Z,4.40
2024-05-09T13:25:35.352Z,2.38
2024-05-09T13:28:03.699Z,2.60
2024-05-09T13:30:39.134Z,2.92
2024-05-09T13:33:13.714Z,4.53
2024-05-09T13:35:46.846Z,2.80
2024-05-09T13:38:17.645Z,6.75
2024-05-09T13:40:45.167Z,4.60
2024-05-09T13:43:12.609Z,2.87
2024-05-09T13:45:39.880Z,4.80
2024-05-09T13:48:09.902Z,8.20
2024-05-09T13:50:37.580Z,2.63
2024-05-09T13:53:07.442Z,2.67
2024-05-09T13:55:38.504Z,5.22
2024-05-09T13:58:06.711Z,5.88
2024-05-09T14:00:44.121Z,2.70
2024-05-09T14:03:17.669Z,3.10
2024-05-09T14:05:46.735Z,6.97
2024-05-09T14:08:15.696Z,2.55
2024-05-09T14:10:46.720Z,2.85
2024-05-09T14:13:15.053Z,5.05
2024-05-09T14:15:42.326Z,3.05
2024-05-09T14:18:12.718Z,4.63
2024-05-09T14:20:42.398Z,3.50
2024-05-09T14:23:09.938Z,5.25
2024-05-09T14:25:42.014Z,4.88
2024-05-09T14:28:11.572Z,3.75
2024-05-09T14:30:39.648Z,10.68
2024-05-09T14:33:08.761Z,4.30
2024-05-09T14:35:37.928Z,4.22
2024-05-09T14:38:06.837Z,3.38
2024-05-09T14:40:40.911Z,4.47
2024-05-09T14:43:12.398Z,14.18
2024-05-09T14:45:40.245Z,3.13
2024-05-09T14:48:08.026Z,2.83
2024-05-09T14:50:38.708Z,4.95
2024-05-09T14:53:08.781Z,3.88
2024-05-09T14:55:37.719Z,3.42
2024-05-09T14:58:06.821Z,4.75
2024-05-09T15:00:38.482Z,2.50
2024-05-09T15:03:07.443Z,2.55
2024-05-09T15:05:34.580Z,5.45
2024-05-09T15:08:01.767Z,6.97
2024-05-09T15:10:34.709Z,7.88
2024-05-09T15:13:04.148Z,6.10
2024-05-09T15:15:32.112Z,3.47
2024-05-09T15:18:00.335Z,5.25
2024-05-09T15:20:34.469Z,4.70
2024-05-09T15:23:06.069Z,5.10
2024-05-09T15:25:34.304Z,6.28
2024-05-09T15:28:01.752Z,2.92
2024-05-09T15:30:32.122Z,3.33
2024-05-09T15:33:03.849Z,2.80
2024-05-09T15:35:31.938Z,4.15
2024-05-09T15:37:59.914Z,3.63
2024-05-09T15:40:35.921Z,4.93
2024-05-09T15:43:07.968Z,6.22
2024-05-09T15:45:36.044Z,3.63
2024-05-09T15:48:04.223Z,4.72
2024-05-09T15:50:38.083Z,6.78
2024-05-09T15:53:09.469Z,4.32
2024-05-09T15:55:37.633Z,9.18
2024-05-09T15:58:05.843Z,8.65
2024-05-09T16:00:45.057Z,3.92
2024-05-09T16:03:14.720Z,4.68
2024-05-09T16:05:46.709Z,5.13
2024-05-09T16:08:15.710Z,4.28
2024-05-09T16:10:46.107Z,5.25
2024-05-09T16:13:14.873Z,5.68
2024-05-09T16:15:43.851Z,5.18
2024-05-09T16:18:11.505Z,3.80
2024-05-09T16:20:41.480Z,8.38
2024-05-09T16:23:11.178Z,4.20
2024-05-09T16:25:39.629Z,8.77
2024-05-09T16:28:09.860Z,3.40
2024-05-09T16:30:39.782Z,3.25
2024-05-09T16:33:07.855Z,4.20
2024-05-09T16:35:35.671Z,7.97
2024-05-09T16:38:04.223Z,5.53
2024-05-09T16:40:37.988Z,5.35
2024-05-09T16:43:09.473Z,4.75
2024-05-09T16:45:37.967Z,3.03
2024-05-09T16:48:06.827Z,3.17
2024-05-09T16:50:35.692Z,7.75
2024-05-09T16:53:05.023Z,3.63
2024-05-09T16:55:32.998Z,3.53
2024-05-09T16:58:00.770Z,3.47
2024-05-09T17:00:38.244Z,3.53
2024-05-09T17:03:11.213Z,6.57
2024-05-09T17:05:39.525Z,5.22
2024-05-09T17:08:07.622Z,7.57
2024-05-09T17:10:36.506Z,5.57
2024-05-09T17:13:06.455Z,5.75
2024-05-09T17:15:36.639Z,8.77
2024-05-09T17:18:05.511Z,9.38
2024-05-09T17:20:35.772Z,6.78
2024-05-09T17:23:06.309Z,6.22
2024-05-09T17:25:34.251Z,8.98
2024-05-09T17:28:07.749Z,19.27
2024-05-09T17:30:38.199Z,7.10
2024-05-09T17:33:09.289Z,11.43
2024-05-09T17:35:37.834Z,11.30
2024-05-09T17:38:06.588Z,14.32
2024-05-09T17:40:36.544Z,9.30
2024-05-09T17:43:07.807Z,11.80
2024-05-09T17:45:40.978Z,13.38
2024-05-09T17:48:10.496Z,8.55
2024-05-09T17:50:39.599Z,7.40
2024-05-09T17:53:07.350Z,10.75
2024-05-09T17:55:34.994Z,5.22
2024-05-09T17:58:02.574Z,15.65
2024-05-09T18:00:37.561Z,9.68
2024-05-09T18:03:09.035Z,6.30
2024-05-09T18:05:37.384Z,13.45
2024-05-09T18:08:08.649Z,8.82
2024-05-09T18:10:38.815Z,5.53
2024-05-09T18:13:08.872Z,6.72
2024-05-09T18:15:36.939Z,12.23
2024-05-09T18:18:05.115Z,10.23
2024-05-09T18:20:41.312Z,9.43
2024-05-09T18:23:13.981Z,7.82
2024-05-09T18:25:41.777Z,11.23
2024-05-09T18:28:09.138Z,8.57
2024-05-09T18:30:55.816Z,5.82
2024-05-09T18:33:24.939Z,9.85
2024-05-09T18:35:52.285Z,10.55
2024-05-09T18:38:20.848Z,6.18
2024-05-09T18:40:49.401Z,10.85
2024-05-09T18:43:17.560Z,10.18
2024-05-09T18:45:45.721Z,10.02
2024-05-09T18:48:13.580Z,12.90
2024-05-09T18:50:41.672Z,8.45
2024-05-09T18:53:13.284Z,8.00
2024-05-09T18:55:43.533Z,9.90
2024-05-09T18:58:10.930Z,13.60
2024-05-09T19:00:44.043Z,10.10
2024-05-09T19:03:14.294Z,8.65
2024-05-09T19:05:43.989Z,13.13
2024-05-09T19:08:12.434Z,7.40
2024-05-09T19:10:40.416Z,14.40
2024-05-09T19:13:11.809Z,19.90
2024-05-09T19:15:41.852Z,14.10
2024-05-09T19:18:10.499Z,15.20
2024-05-09T19:20:38.351Z,11.38
2024-05-09T19:23:07.065Z,15.15
2024-05-09T19:25:35.539Z,27.77
2024-05-09T19:28:03.721Z,10.77
2024-05-09T19:30:38.546Z,13.00
2024-05-09T19:33:10.188Z,10.80
2024-05-09T19:35:38.840Z,9.80
2024-05-09T19:38:06.573Z,15.77
2024-05-09T19:40:35.092Z,13.55
2024-05-09T19:43:05.287Z,11.73
2024-05-09T19:45:34.677Z,17.27
2024-05-09T19:48:03.130Z,13.57
2024-05-09T19:50:39.306Z,16.63
2024-05-09T19:53:11.347Z,19.00
2024-05-09T19:55:38.902Z,10.13
2024-05-09T19:58:07.447Z,13.55
2024-05-09T20:00:38.265Z,9.57
2024-05-09T20:03:07.878Z,18.33
2024-05-09T20:05:36.029Z,13.40
2024-05-09T20:08:03.613Z,15.13
2024-05-09T20:10:33.305Z,11.88
2024-05-09T20:13:05.995Z,10.88
2024-05-09T20:15:35.486Z,10.73
2024-05-09T20:18:03.635Z,11.90
2024-05-09T20:20:37.654Z,13.30
2024-05-09T20:23:09.539Z,10.23
2024-05-09T20:25:37.388Z,14.75
2024-05-09T20:28:06.384Z,18.85
2024-05-09T20:30:35.332Z,13.23
2024-05-09T20:33:04.946Z,16.40
2024-05-09T20:35:33.617Z,13.65
2024-05-09T20:38:02.155Z,12.07
2024-05-09T20:40:34.609Z,10.02
2024-05-09T20:43:05.733Z,10.57
2024-05-09T20:45:33.784Z,14.57
2024-05-09T20:48:01.444Z,15.00
2024-05-09T20:50:36.808Z,9.38
2024-05-09T20:53:13.128Z,14.82
2024-05-09T20:55:41.799Z,13.63
2024-05-09T20:58:09.845Z,11.49
2024-05-09T21:00:40.872Z,13.45
2024-05-09T21:03:11.802Z,9.85
2024-05-09T21:05:40.259Z,15.00
2024-05-09T21:08:07.938Z,18.48
2024-05-09T21:10:36.558Z,11.07
2024-05-09T21:13:05.086Z,11.77
2024-05-09T21:15:32.950Z,9.00
2024-05-09T21:18:00.064Z,8.40
2024-05-09T21:22:57.942Z,17.23
2024-05-09T21:25:25.307Z,12.00
2024-05-09T21:27:52.712Z,39.30
2024-05-09T21:30:31.512Z,99.75
2024-05-09T21:33:09.140Z,126.10
2024-05-09T21:35:37.233Z,112.43
2024-05-09T21:38:04.764Z,116.60
2024-05-09T21:40:35.087Z,136.70
2024-05-09T21:43:04.730Z,66.13
2024-05-09T21:45:32.626Z,85.85
2024-05-09T21:48:00.036Z,64.60
2024-05-09T21:50:36.081Z,54.72
2024-05-09T21:53:07.606Z,44.78
2024-05-09T21:55:34.994Z,87.38
2024-05-09T21:58:02.726Z,93.47
2024-05-09T22:00:36.101Z,46.00
2024-05-09T22:03:06.612Z,21.58
2024-05-09T22:05:34.239Z,7.97
2024-05-09T22:08:01.612Z,5.53
2024-05-09T22:10:33.943Z,5.30
2024-05-09T22:13:04.718Z,6.93
2024-05-09T22:15:36.411Z,9.20
2024-05-09T22:18:05.304Z,6.45
2024-05-09T22:20:37.320Z,6.60
2024-05-09T22:23:07.034Z,7.15
2024-05-09T22:25:34.434Z,8.02
2024-05-09T22:28:02.829Z,9.80
2024-05-09T22:30:36.666Z,5.57
2024-05-09T22:33:10.813Z,6.47
2024-05-09T22:35:40.732Z,5.72
2024-05-09T22:38:08.644Z,6.47
2024-05-09T22:40:46.665Z,5.50
2024-05-09T22:43:21.703Z,8.18
2024-05-09T22:45:51.277Z,4.82
2024-05-09T22:48:19.019Z,4.18
2024-05-09T22:50:46.239Z,7.07
2024-05-09T22:53:13.355Z,8.02
2024-05-09T22:55:40.474Z,10.02
2024-05-09T22:58:07.758Z,7.82
2024-05-09T23:00:35.191Z,6.15
2024-05-09T23:03:02.824Z,7.72
2024-05-09T23:05:32.326Z,8.05
2024-05-09T23:08:01.863Z,5.05
2024-05-09T23:10:35.622Z,6.65
2024-05-09T23:13:07.214Z,5.72
2024-05-09T23:15:36.066Z,7.82
2024-05-09T23:18:03.271Z,5.13
2024-05-09T23:20:37.032Z,7.20
2024-05-09T23:23:07.356Z,8.02
2024-05-09T23:25:35.025Z,4.85
2024-05-09T23:28:02.163Z,6.15
2024-05-09T23:30:36.909Z,8.73
2024-05-09T23:33:07.420Z,7.30
2024-05-09T23:35:34.782Z,4.28
2024-05-09T23:38:01.853Z,7.40
2024-05-09T23:42:58.978Z,8.85
2024-05-09T23:45:26.055Z,4.80
2024-05-09T23:47:53.532Z,9.00
2024-05-09T23:50:26.735Z,4.05
2024-05-09T23:53:00.695Z,3.40
2024-05-09T23:55:28.794Z,4.07
2024-05-09T23:57:55.959Z,4.15
